Time;durP1;ratioP1;P1;durP2;ratioP2;P2;SDS_P1;SDS_P2;PMS_P1;PMS_P2;Temp;Humidity;BMP_temperature;BMP_pressure;BME280_temperature;BME280_humidity;BME280_pressure;Samples;Min_cycle;Max_cycle;Signal;HPM_P1;HPM_P2
2022/04/04 00:00:45;;;;;;;2.10;1.50;;;;;;;0.15;100.00;98480.63;10452800;28;20043;-60
2022/04/04 00:05:48;;;;;;;2.20;1.95;;;;;;;0.07;100.00;98473.16;10455802;28;20045;-61
2022/04/04 00:10:52;;;;;;;1.83;1.70;;;;;;;0.01;100.00;98470.84;10455129;28;20411;-60
2022/04/04 00:15:57;;;;;;;2.05;1.60;;;;;;;-0.03;100.00;98466.69;10454680;28;21248;-60
2022/04/04 00:21:00;;;;;;;1.60;1.48;;;;;;;-0.04;100.00;98471.13;10454177;28;20046;-58
2022/04/04 00:26:05;;;;;;;2.03;1.70;;;;;;;-0.11;100.00;98450.41;10413174;28;20135;-60
2022/04/04 00:31:10;;;;;;;2.70;1.60;;;;;;;-0.19;100.00;98440.31;10413076;28;20041;-59
2022/04/04 00:36:13;;;;;;;2.90;1.70;;;;;;;-0.24;100.00;98445.00;10413576;28;20048;-59
2022/04/04 00:41:17;;;;;;;1.92;1.67;;;;;;;-0.29;100.00;98433.88;10428435;23;20111;-58
2022/04/04 00:46:22;;;;;;;2.35;1.60;;;;;;;-0.32;100.00;98432.22;10451132;28;20536;-58
2022/04/04 00:51:25;;;;;;;1.50;1.40;;;;;;;-0.40;100.00;98430.03;10457637;28;20540;-58
2022/04/04 00:56:28;;;;;;;2.63;1.55;;;;;;;-0.40;100.00;98418.63;10455823;28;20137;-57
2022/04/04 01:01:33;;;;;;;2.40;1.80;;;;;;;-0.46;100.00;98417.19;10457014;28;20154;-58
2022/04/04 01:06:36;;;;;;;1.45;1.35;;;;;;;-0.46;100.00;98417.19;10454684;28;20056;-57
2022/04/04 01:11:39;;;;;;;1.40;1.30;;;;;;;-0.53;100.00;98410.56;10457337;28;20049;-58
2022/04/04 01:16:44;;;;;;;1.83;1.50;;;;;;;-0.54;100.00;98408.88;10453289;28;20138;-58
2022/04/04 01:21:47;;;;;;;2.05;1.30;;;;;;;-0.55;100.00;98396.56;10456557;28;20540;-59
2022/04/04 01:26:53;;;;;;;1.90;1.58;;;;;;;-0.61;100.00;98395.16;10454782;28;20126;-57
2022/04/04 01:31:56;;;;;;;2.15;1.60;;;;;;;-0.62;100.00;98394.28;10456916;28;20045;-57
2022/04/04 01:37:00;;;;;;;3.60;1.55;;;;;;;-0.60;100.00;98390.69;10452422;28;20048;-56
2022/04/04 01:42:06;;;;;;;2.00;1.60;;;;;;;-0.59;100.00;98387.09;10462432;28;21125;-56
2022/04/04 01:47:10;;;;;;;1.55;1.40;;;;;;;-0.58;100.00;98380.88;10462296;28;20046;-56
2022/04/04 01:52:13;;;;;;;2.25;1.50;;;;;;;-0.59;100.00;98369.44;10462179;28;20052;-56
2022/04/04 01:57:17;;;;;;;1.92;1.40;;;;;;;-0.60;100.00;98372.16;10463131;28;20171;-58
2022/04/04 02:02:20;;;;;;;2.38;1.67;;;;;;;-0.62;100.00;98369.63;10463173;28;20036;-57
2022/04/04 02:07:24;;;;;;;1.48;1.38;;;;;;;-0.63;100.00;98363.47;10461045;28;20052;-54
2022/04/04 02:12:30;;;;;;;2.22;1.40;;;;;;;-0.65;100.00;98360.06;10463339;28;20147;-57
2022/04/04 02:17:34;;;;;;;1.83;1.63;;;;;;;-0.68;100.00;98362.91;10462953;28;20044;-57
2022/04/04 02:22:37;;;;;;;1.67;1.50;;;;;;;-0.72;100.00;98350.78;10462622;28;20696;-57
2022/04/04 02:27:42;;;;;;;1.95;1.40;;;;;;;-0.76;100.00;98343.97;10462120;28;20257;-56
2022/04/04 02:32:45;;;;;;;1.48;1.38;;;;;;;-0.81;100.00;98346.06;10462374;28;20523;-58
2022/04/04 02:37:48;;;;;;;2.25;1.48;;;;;;;-0.87;100.00;98339.34;10462641;28;20191;-57
2022/04/04 02:42:52;;;;;;;1.88;1.60;;;;;;;-0.89;100.00;98325.34;10459199;28;20059;-57
2022/04/04 02:47:55;;;;;;;2.35;1.50;;;;;;;-0.95;100.00;98331.03;10461321;28;20055;-58
2022/04/04 02:52:59;;;;;;;2.28;1.50;;;;;;;-1.00;100.00;98325.97;10459937;28;20048;-57
2022/04/04 02:58:03;;;;;;;1.95;1.60;;;;;;;-1.10;100.00;98323.06;10460797;28;20131;-58
2022/04/04 03:03:07;;;;;;;1.95;1.73;;;;;;;-1.04;100.00;98320.97;10459589;28;20037;-57
2022/04/04 03:08:11;;;;;;;2.95;1.67;;;;;;;-1.04;100.00;98323.63;10459749;28;20059;-59
2022/04/04 03:13:16;;;;;;;1.60;1.50;;;;;;;-1.03;100.00;98320.91;10458246;28;20036;-58
2022/04/04 03:18:19;;;;;;;1.85;1.75;;;;;;;-1.04;100.00;98313.03;10458738;28;20048;-57
2022/04/04 03:23:27;;;;;;;2.63;1.70;;;;;;;-1.02;100.00;98303.22;10460195;28;20044;-57
2022/04/04 03:28:31;;;;;;;2.55;1.88;;;;;;;-1.05;100.00;98301.63;10458816;28;20051;-58
2022/04/04 03:33:35;;;;;;;3.35;2.00;;;;;;;-1.08;100.00;98296.50;10458322;28;20043;-58
2022/04/04 03:38:38;;;;;;;2.10;1.70;;;;;;;-1.09;100.00;98292.16;10457444;28;20190;-58
2022/04/04 03:43:43;;;;;;;2.47;1.70;;;;;;;-1.10;100.00;98290.44;10454720;28;20135;-57
2022/04/04 03:48:46;;;;;;;1.92;1.80;;;;;;;-1.13;100.00;98280.09;10453376;28;20217;-56
2022/04/04 03:53:49;;;;;;;2.45;1.80;;;;;;;-1.15;100.00;98268.75;10456304;28;20139;-58
2022/04/04 03:58:54;;;;;;;2.65;1.67;;;;;;;-1.20;100.00;98266.38;10458115;28;20044;-58
2022/04/04 04:03:58;;;;;;;2.65;1.88;;;;;;;-1.21;100.00;98267.31;10459144;28;20045;-58
2022/04/04 04:09:01;;;;;;;3.13;1.80;;;;;;;-1.21;100.00;98261.16;10458935;28;20496;-58
2022/04/04 04:14:06;;;;;;;2.30;1.80;;;;;;;-1.23;100.00;98263.91;10461144;28;20051;-57
2022/04/04 04:20:19;;;;;;;2.60;1.92;;;;;;;-1.25;100.00;98245.50;10455571;28;20150;-57
2022/04/04 04:24:32;;;;;;;2.72;2.05;;;;;;;-1.29;100.00;98236.06;10456249;28;20048;-58
2022/04/04 04:29:36;;;;;;;3.90;1.80;;;;;;;-1.31;100.00;98237.94;10457573;28;20091;-58
2022/04/04 04:34:39;;;;;;;2.33;1.98;;;;;;;-1.22;100.00;98230.38;10454738;28;20763;-58
2022/04/04 04:39:43;;;;;;;2.13;1.92;;;;;;;-1.16;100.00;98238.81;10454177;28;20149;-57
2022/04/04 04:44:47;;;;;;;2.80;2.05;;;;;;;-1.18;100.00;98232.78;10455852;28;20087;-56
2022/04/04 04:49:50;;;;;;;2.20;2.00;;;;;;;-1.20;100.00;98225.88;10452086;28;20080;-55
2022/04/04 04:54:54;;;;;;;2.30;2.10;;;;;;;-1.17;100.00;98225.69;10457778;28;20045;-58
2022/04/04 04:59:58;;;;;;;2.47;1.90;;;;;;;-1.14;100.00;98217.56;10459410;28;20052;-58
2022/04/04 05:05:01;;;;;;;2.47;1.80;;;;;;;-1.13;100.00;98214.84;10471782;28;20404;-57
2022/04/04 05:10:05;;;;;;;2.20;2.00;;;;;;;-1.12;100.00;98207.78;10455172;28;20045;-58
2022/04/04 05:15:10;;;;;;;2.20;2.00;;;;;;;-1.15;100.00;98200.00;10464970;28;20044;-56
2022/04/04 05:20:13;;;;;;;2.38;2.17;;;;;;;-1.16;100.00;98188.56;10464284;28;20080;-59
2022/04/04 05:25:16;;;;;;;3.05;1.95;;;;;;;-1.14;100.00;98188.50;10466512;28;20182;-57
2022/04/04 05:30:20;;;;;;;2.60;2.10;;;;;;;-1.13;100.00;98187.56;10468607;28;20072;-58
2022/04/04 05:35:23;;;;;;;4.00;2.08;;;;;;;-1.11;100.00;98175.06;10467839;28;20067;-57
2022/04/04 05:40:27;;;;;;;2.20;2.05;;;;;;;-1.04;100.00;98173.78;10467088;28;20539;-55
2022/04/04 05:45:31;;;;;;;2.33;2.13;;;;;;;-0.94;100.00;98171.38;10469815;28;21400;-57
2022/04/04 05:50:34;;;;;;;3.15;2.20;;;;;;;-0.84;100.00;98169.03;10468496;28;20520;-59
2022/04/04 05:55:38;;;;;;;4.13;2.30;;;;;;;-0.73;100.00;98166.56;10467373;28;20044;-58
2022/04/04 06:00:43;;;;;;;2.67;2.30;;;;;;;-0.64;100.00;98165.13;10467786;28;20072;-60
2022/04/04 06:05:47;;;;;;;3.03;2.35;;;;;;;-0.56;100.00;98162.00;10470270;28;20048;-60
2022/04/04 06:10:50;;;;;;;3.22;2.88;;;;;;;-0.43;100.00;98165.56;10468850;28;20053;-58
2022/04/04 06:15:55;;;;;;;2.65;2.45;;;;;;;-0.26;100.00;98155.69;10468591;28;20053;-56
2022/04/04 06:20:58;;;;;;;2.63;2.40;;;;;;;-0.05;100.00;98148.97;10469068;28;20055;-58
2022/04/04 06:26:04;;;;;;;4.55;2.60;;;;;;;0.15;100.00;98146.81;10461997;28;20047;-59
2022/04/04 06:31:10;;;;;;;4.07;2.55;;;;;;;0.36;100.00;98154.28;10461218;28;20037;-58
2022/04/04 06:36:13;;;;;;;3.08;2.70;;;;;;;0.52;100.00;98144.34;10462252;28;20048;-52
2022/04/04 06:41:16;;;;;;;5.28;2.90;;;;;;;0.69;100.00;98139.66;10461628;28;20628;-51
2022/04/04 06:46:22;;;;;;;3.05;2.78;;;;;;;0.86;100.00;98123.44;10460880;28;20068;-55
2022/04/04 06:51:25;;;;;;;2.72;2.53;;;;;;;1.02;100.00;98125.88;10460127;28;20045;-54
2022/04/04 06:56:28;;;;;;;2.78;2.58;;;;;;;1.22;100.00;98134.22;10459222;28;20094;-52
2022/04/04 07:01:33;;;;;;;2.78;2.47;;;;;;;1.38;100.00;98121.53;10458207;28;20049;-54
2022/04/04 07:06:36;;;;;;;2.60;2.40;;;;;;;1.61;100.00;98118.16;10458039;28;20055;-56
2022/04/04 07:11:39;;;;;;;3.85;2.28;;;;;;;1.78;100.00;98096.53;10459241;28;20136;-54
2022/04/04 07:16:43;;;;;;;4.18;2.85;;;;;;;1.89;100.00;98097.53;10459763;28;20040;-53
2022/04/04 07:21:46;;;;;;;2.72;2.53;;;;;;;2.05;100.00;98095.44;10459750;28;20044;-64
2022/04/04 07:26:50;;;;;;;3.10;2.80;;;;;;;2.17;100.00;98093.66;10459646;28;20045;-60
2022/04/04 07:31:54;;;;;;;4.35;2.95;;;;;;;2.33;100.00;98084.53;10456088;28;20831;-63
2022/04/04 07:36:57;;;;;;;3.45;2.78;;;;;;;2.51;100.00;98079.59;10457740;28;20052;-52
2022/04/04 07:42:00;;;;;;;3.00;2.40;;;;;;;2.54;100.00;98072.22;10459047;28;20084;-56
2022/04/04 07:47:05;;;;;;;2.95;2.70;;;;;;;2.67;100.00;98058.81;10459261;28;20211;-53
2022/04/04 07:52:09;;;;;;;2.78;2.55;;;;;;;2.73;100.00;98066.31;10461694;28;20412;-61
2022/04/04 07:57:12;;;;;;;2.80;2.60;;;;;;;2.91;100.00;98049.84;10459581;28;20182;-63
2022/04/04 08:02:16;;;;;;;3.55;2.50;;;;;;;3.04;100.00;98047.91;10457499;28;20041;-56
2022/04/04 08:07:20;;;;;;;2.70;2.50;;;;;;;3.27;100.00;98041.72;10456770;28;20123;-60
2022/04/04 08:12:25;;;;;;;2.75;2.33;;;;;;;3.43;100.00;98043.97;10458080;28;20496;-56
2022/04/04 08:17:30;;;;;;;3.88;2.40;;;;;;;3.53;100.00;98015.59;10457759;28;20049;-58
2022/04/04 08:22:38;;;;;;;4.18;2.70;;;;;;;3.53;100.00;98020.94;10458771;28;20088;-56
2022/04/04 08:27:43;;;;;;;2.60;2.40;;;;;;;3.57;100.00;98042.84;10457078;28;20501;-58
2022/04/04 08:32:48;;;;;;;2.83;2.58;;;;;;;3.52;100.00;98024.56;10475012;28;20545;-56
2022/04/04 08:37:51;;;;;;;2.92;2.63;;;;;;;3.69;100.00;98005.38;10454806;28;20041;-55
2022/04/04 08:42:55;;;;;;;3.40;2.60;;;;;;;3.76;100.00;97999.53;10455488;28;20063;-55
2022/04/04 08:48:00;;;;;;;3.03;2.53;;;;;;;3.87;100.00;97994.13;10455615;28;20580;-52
2022/04/04 08:53:04;;;;;;;3.03;2.35;;;;;;;4.01;100.00;97983.16;10456756;28;20040;-56
2022/04/04 08:58:07;;;;;;;3.55;1.95;;;;;;;4.18;100.00;97956.88;10454853;28;20048;-54
2022/04/04 09:03:11;;;;;;;2.63;2.10;;;;;;;4.35;100.00;97963.41;10459130;28;20041;-54
2022/04/04 09:08:15;;;;;;;3.20;2.13;;;;;;;4.67;100.00;97951.75;10452597;28;20056;-53
2022/04/04 09:13:19;;;;;;;1.80;1.70;;;;;;;4.58;97.91;97941.91;10456702;28;20044;-56
2022/04/04 09:18:42;;;;;;;3.65;2.20;;;;;;;4.58;98.90;97936.56;10455216;28;20070;-56
2022/04/04 09:23:54;;;;;;;2.00;1.80;;;;;;;4.66;100.00;97933.19;10456774;28;20656;-55
2022/04/04 09:28:58;;;;;;;1.90;1.80;;;;;;;4.82;88.12;97922.84;10456186;28;20032;-53
2022/04/04 09:34:04;;;;;;;1.83;1.73;;;;;;;4.91;89.88;97922.03;10456302;28;20041;-54
2022/04/04 09:39:09;;;;;;;1.73;1.63;;;;;;;4.98;94.68;97898.28;10454508;28;20125;-55
2022/04/04 09:44:16;;;;;;;2.00;1.80;;;;;;;5.04;88.93;97905.75;10457711;28;20049;-53
2022/04/04 09:49:21;;;;;;;2.60;1.70;;;;;;;5.08;88.87;97874.28;10455182;28;20563;-53
2022/04/04 09:54:26;;;;;;;2.70;1.80;;;;;;;5.19;86.93;97876.81;10456385;28;20040;-52
2022/04/04 09:59:30;;;;;;;1.90;1.75;;;;;;;5.21;87.29;97858.84;10457608;28;20040;-54
2022/04/04 10:04:35;;;;;;;2.00;1.80;;;;;;;5.28;84.32;97848.44;10463890;28;20044;-55
2022/04/04 10:09:38;;;;;;;1.83;1.58;;;;;;;5.28;78.74;97834.22;10462577;28;20041;-54
2022/04/04 10:14:42;;;;;;;2.30;1.70;;;;;;;5.24;77.61;97847.00;10459759;28;20158;-54
2022/04/04 10:19:47;;;;;;;1.80;1.70;;;;;;;5.52;85.18;97805.22;10462229;28;20044;-52
2022/04/04 10:24:51;;;;;;;1.60;1.50;;;;;;;5.61;78.76;97794.63;10462752;28;20056;-54
2022/04/04 10:30:02;;;;;;;1.88;1.70;;;;;;;5.64;70.35;97762.28;10460292;28;20057;-54
2022/04/04 10:35:13;;;;;;;2.73;1.47;;;;;;;5.69;72.02;97758.19;10462093;28;20179;-53
2022/04/04 10:40:22;;;;;;;1.70;1.60;;;;;;;5.86;72.52;97756.56;10460243;28;20044;-53
2022/04/04 10:45:28;;;;;;;1.40;1.30;;;;;;;5.96;67.12;97740.47;10458104;28;20044;-53
2022/04/04 10:50:34;;;;;;;2.25;1.30;;;;;;;6.05;64.33;97701.34;10460618;28;20143;-52
2022/04/04 10:55:49;;;;;;;1.38;1.20;;;;;;;6.05;59.83;97705.84;10459996;28;20049;-57
2022/04/04 11:01:01;;;;;;;1.15;1.05;;;;;;;5.95;61.93;97711.19;10460126;28;20071;-64
2022/04/04 11:12:11;;;;;;;1.98;1.27;;;;;;;5.95;60.08;97700.50;10458629;28;20055;-62
2022/04/04 11:17:23;;;;;;;2.00;1.40;;;;;;;5.89;61.60;97674.38;10427861;28;20051;-57
2022/04/04 11:22:29;;;;;;;1.50;1.40;;;;;;;6.04;61.65;97646.19;10461017;28;20049;-58
2022/04/04 11:27:34;;;;;;;1.58;1.30;;;;;;;6.08;62.19;97658.25;10459108;28;20118;-61
2022/04/04 11:32:40;;;;;;;1.60;1.50;;;;;;;6.25;61.03;97637.00;10460366;28;20801;-64
2022/04/04 11:37:49;;;;;;;1.50;1.40;;;;;;;6.04;58.66;97638.16;10459557;28;20101;-62
2022/04/04 11:42:53;;;;;;;1.45;1.35;;;;;;;6.10;57.70;97613.47;10458816;28;20048;-57
2022/04/04 11:47:58;;;;;;;1.40;1.30;;;;;;;6.03;60.94;97617.75;10459474;28;20050;-60
2022/04/04 11:53:05;;;;;;;9.32;1.55;;;;;;;5.89;59.09;97655.69;10457728;28;20484;-58
2022/04/04 11:58:10;;;;;;;1.80;1.45;;;;;;;5.75;61.27;97607.09;10459030;28;20045;-55
2022/04/04 12:03:15;;;;;;;1.40;1.30;;;;;;;5.79;59.32;97588.91;10458952;28;20525;-59
2022/04/04 12:08:21;;;;;;;2.75;1.40;;;;;;;5.75;60.05;97585.69;10457412;28;20075;-57
2022/04/04 12:13:24;;;;;;;1.40;1.30;;;;;;;5.71;59.29;97561.13;10441409;28;21351;-58
2022/04/04 12:18:30;;;;;;;1.45;1.30;;;;;;;5.74;61.84;97559.97;10445268;28;20053;-55
2022/04/04 12:28:56;;;;;;;2.88;1.48;;;;;;;5.65;64.44;97524.31;10421647;28;20052;-58
2022/04/04 12:34:06;;;;;;;2.22;1.40;;;;;;;5.60;63.73;97461.63;10422390;28;20051;-57
2022/04/04 12:39:16;;;;;;;1.92;1.40;;;;;;;5.44;62.67;97492.56;10397683;28;20057;-58
2022/04/04 12:44:20;;;;;;;2.03;1.77;;;;;;;5.28;66.51;97493.22;10420879;28;20726;-59
2022/04/04 12:49:26;;;;;;;1.50;1.40;;;;;;;5.34;66.76;97451.72;10423863;28;20051;-57
2022/04/04 12:54:46;;;;;;;2.72;1.50;;;;;;;5.42;64.46;97459.81;10419590;28;20497;-56
2022/04/04 12:59:53;;;;;;;1.50;1.40;;;;;;;5.39;64.63;97441.41;10424232;28;20041;-55
2022/04/04 13:05:12;;;;;;;2.15;1.60;;;;;;;5.46;62.95;97413.13;10421899;28;20047;-58
2022/04/04 13:10:16;;;;;;;2.65;1.40;;;;;;;5.66;64.12;97419.09;10396098;28;20058;-59
2022/04/04 13:15:38;;;;;;;1.50;1.40;;;;;;;5.68;63.56;97408.28;10418982;28;20077;-59
2022/04/04 13:20:41;;;;;;;1.42;1.30;;;;;;;5.55;60.10;97414.84;10421486;28;20480;-60
2022/04/04 13:25:47;;;;;;;2.67;1.30;;;;;;;5.36;62.10;97397.16;10418716;28;20111;-58
2022/04/04 13:30:51;;;;;;;1.67;1.30;;;;;;;5.34;65.56;97379.63;10421218;28;20049;-58
2022/04/04 13:35:54;;;;;;;1.30;1.20;;;;;;;5.31;63.34;97366.56;10427251;28;20133;-59
2022/04/04 13:40:59;;;;;;;1.40;1.30;;;;;;;5.27;64.19;97351.84;10429948;28;20098;-58
2022/04/04 13:46:04;;;;;;;1.98;1.30;;;;;;;5.39;65.10;97353.28;10387891;28;20056;-58
2022/04/04 13:51:07;;;;;;;1.50;1.20;;;;;;;5.37;65.73;97323.19;10387127;28;20053;-59
2022/04/04 13:56:12;;;;;;;3.58;1.20;;;;;;;5.42;67.66;97320.91;10387991;28;20072;-59
2022/04/04 14:01:15;;;;;;;3.13;1.40;;;;;;;5.48;64.94;97317.59;10384000;28;20199;-59
2022/04/04 14:06:19;;;;;;;1.42;1.30;;;;;;;5.44;65.05;97305.56;10388708;28;20064;-61
2022/04/04 14:11:24;;;;;;;2.22;1.35;;;;;;;5.50;65.77;97312.94;10387072;28;20124;-61
2022/04/04 14:16:27;;;;;;;1.13;1.02;;;;;;;5.48;64.88;97293.56;10400250;28;20095;-62
2022/04/04 14:21:30;;;;;;;2.20;1.40;;;;;;;5.46;64.66;97292.06;10396118;28;20081;-59
2022/04/04 14:26:36;;;;;;;2.05;1.50;;;;;;;5.48;63.68;97300.75;10386835;28;20115;-57
2022/04/04 14:31:39;;;;;;;1.42;1.33;;;;;;;5.46;72.14;97279.56;10398492;28;20783;-56
2022/04/04 14:36:42;;;;;;;2.35;1.45;;;;;;;5.50;67.60;97280.06;10386136;28;20042;-59
2022/04/04 14:41:49;;;;;;;1.60;1.50;;;;;;;5.38;69.23;97283.00;10403986;23;20919;-60
2022/04/04 14:46:52;;;;;;;1.60;1.50;;;;;;;5.18;76.36;97268.16;10429616;28;20653;-58
2022/04/04 14:52:16;;;;;;;1.50;1.40;;;;;;;5.14;76.37;97240.94;10445546;28;20052;-60
2022/04/04 14:57:20;;;;;;;2.60;1.63;;;;;;;5.27;74.33;97237.88;10429013;28;20055;-61
2022/04/04 15:02:23;;;;;;;1.70;1.60;;;;;;;5.32;71.84;97261.44;10426672;28;20045;-58
2022/04/04 15:07:47;;;;;;;4.07;1.80;;;;;;;5.21;77.18;97260.69;10429411;28;20037;-59
2022/04/04 15:12:51;;;;;;;2.15;1.50;;;;;;;5.17;83.56;97253.97;10428914;28;20055;-57
2022/04/04 15:17:54;;;;;;;3.70;1.52;;;;;;;5.04;89.26;97273.09;10427360;28;20044;-58
2022/04/04 15:22:57;;;;;;;2.15;1.80;;;;;;;4.72;100.00;97255.78;10428587;28;20055;-55
2022/04/04 15:28:02;;;;;;;2.22;1.70;;;;;;;4.41;100.00;97258.00;10428399;28;20040;-54
2022/04/04 15:33:06;;;;;;;1.80;1.70;;;;;;;4.25;100.00;97232.84;10425920;28;20049;-54
2022/04/04 15:38:09;;;;;;;2.40;2.20;;;;;;;4.13;100.00;97234.88;10422757;28;20053;-57
2022/04/04 15:43:16;;;;;;;2.58;2.38;;;;;;;4.06;100.00;97228.47;10427660;28;20053;-56
2022/04/04 15:48:19;;;;;;;2.25;2.05;;;;;;;4.05;100.00;97215.31;10427659;28;20049;-54
2022/04/04 15:53:23;;;;;;;2.70;2.03;;;;;;;4.12;100.00;97222.53;10427836;28;20060;-56
2022/04/04 15:58:27;;;;;;;2.00;1.90;;;;;;;4.11;100.00;97183.56;10426152;28;20151;-60
2022/04/04 16:03:32;;;;;;;2.58;2.17;;;;;;;4.18;100.00;97205.09;10427776;28;20135;-58
2022/04/04 16:08:35;;;;;;;3.08;1.90;;;;;;;4.29;100.00;97186.19;10419146;28;20047;-60
2022/04/04 16:13:40;;;;;;;1.90;1.73;;;;;;;4.34;100.00;97166.25;10427807;28;20619;-61
2022/04/04 16:18:43;;;;;;;2.17;1.98;;;;;;;4.37;100.00;97169.44;10422963;28;20052;-56
2022/04/04 16:23:48;;;;;;;2.28;1.70;;;;;;;4.39;100.00;97199.47;10426900;28;20151;-62
2022/04/04 16:28:52;;;;;;;2.33;1.85;;;;;;;4.38;100.00;97202.31;10421211;28;20052;-60
2022/04/04 16:33:55;;;;;;;2.95;1.90;;;;;;;4.41;100.00;97152.16;10441377;28;20045;-65
2022/04/04 16:38:58;;;;;;;2.00;1.80;;;;;;;4.30;100.00;97145.22;10424830;28;20041;-61
2022/04/04 16:44:03;;;;;;;5.55;1.88;;;;;;;4.30;100.00;97169.22;10419174;28;20144;-60
2022/04/04 16:49:07;;;;;;;2.20;1.90;;;;;;;4.22;100.00;97147.00;10422342;28;20057;-63
2022/04/04 16:54:10;;;;;;;1.90;1.80;;;;;;;4.15;100.00;97160.09;10422940;28;20048;-60
2022/04/04 16:59:15;;;;;;;4.00;2.05;;;;;;;4.11;100.00;97172.03;10422673;28;20933;-62
2022/04/04 17:04:20;;;;;;;1.75;1.65;;;;;;;4.03;100.00;97167.47;10423923;28;20051;-62
2022/04/04 17:09:23;;;;;;;1.95;1.85;;;;;;;3.96;100.00;97142.41;10424347;28;20079;-61
2022/04/04 17:14:28;;;;;;;2.63;1.80;;;;;;;3.94;100.00;97144.41;10422288;28;20115;-62
2022/04/04 17:19:31;;;;;;;2.20;2.00;;;;;;;3.83;100.00;97116.13;10422743;28;20103;-64
2022/04/04 17:24:34;;;;;;;2.10;1.90;;;;;;;3.78;100.00;97126.41;10423497;28;20139;-58
2022/04/04 17:29:38;;;;;;;2.05;1.85;;;;;;;3.73;100.00;97129.53;10423412;28;20148;-59
2022/04/04 17:34:42;;;;;;;2.10;1.90;;;;;;;3.76;100.00;97118.59;10424446;28;20460;-54
2022/04/04 17:39:45;;;;;;;2.65;1.83;;;;;;;3.79;100.00;97130.75;10423258;28;20048;-59
2022/04/04 17:44:50;;;;;;;3.83;1.90;;;;;;;3.77;100.00;97136.22;10436035;28;20193;-59
2022/04/04 17:49:53;;;;;;;4.18;1.90;;;;;;;3.82;100.00;97119.81;10420339;28;20049;-56
2022/04/04 17:54:56;;;;;;;2.00;1.80;;;;;;;3.75;100.00;97135.56;10423474;28;20512;-57
2022/04/04 18:00:00;;;;;;;2.13;1.92;;;;;;;3.72;100.00;97119.00;10421209;28;20520;-56
2022/04/04 18:05:08;;;;;;;1.90;1.80;;;;;;;3.74;100.00;97141.00;10421456;28;20049;-58
2022/04/04 18:10:14;;;;;;;2.10;1.90;;;;;;;3.70;100.00;97116.50;10420441;28;20138;-58
2022/04/04 18:15:19;;;;;;;2.10;2.00;;;;;;;3.75;100.00;97121.38;10421554;28;20796;-57
2022/04/04 18:20:22;;;;;;;2.28;2.08;;;;;;;3.77;100.00;97106.09;10419502;28;20053;-56
2022/04/04 18:25:26;;;;;;;2.47;1.83;;;;;;;3.80;100.00;97113.78;10431233;28;20777;-59
2022/04/04 18:30:32;;;;;;;2.10;1.90;;;;;;;3.76;100.00;97131.06;10429026;28;20140;-62
2022/04/04 18:35:35;;;;;;;2.22;2.00;;;;;;;3.80;100.00;97119.94;10430504;28;20162;-60
2022/04/04 18:40:39;;;;;;;2.20;1.90;;;;;;;3.82;100.00;97128.63;10427676;28;20073;-60
2022/04/04 18:45:43;;;;;;;1.63;1.52;;;;;;;3.87;100.00;97144.16;10410067;22;20135;-62
2022/04/04 18:50:46;;;;;;;2.13;1.67;;;;;;;3.89;100.00;97144.00;10391059;28;20045;-63
2022/04/04 18:55:49;;;;;;;1.80;1.70;;;;;;;3.89;100.00;97136.00;10389736;28;20529;-63
2022/04/04 19:00:54;;;;;;;1.83;1.67;;;;;;;3.91;100.00;97158.88;10389865;28;20052;-60
2022/04/04 19:05:57;;;;;;;1.70;1.60;;;;;;;3.92;100.00;97151.69;10390518;28;20134;-57
2022/04/04 19:11:02;;;;;;;1.80;1.70;;;;;;;3.91;100.00;97128.69;10387864;28;20051;-61
2022/04/04 19:16:07;;;;;;;1.88;1.77;;;;;;;3.90;100.00;97127.88;10389619;28;21572;-56
2022/04/04 19:21:10;;;;;;;1.90;1.80;;;;;;;3.88;100.00;97142.34;10386974;28;20825;-57
2022/04/04 19:26:13;;;;;;;1.80;1.70;;;;;;;3.87;100.00;97133.50;10388476;28;20048;-57
2022/04/04 19:31:17;;;;;;;1.90;1.80;;;;;;;3.89;100.00;97131.53;10387354;28;20049;-60
2022/04/04 19:36:21;;;;;;;2.22;1.90;;;;;;;3.92;100.00;97136.56;10388201;28;20413;-56
2022/04/04 19:41:24;;;;;;;2.40;1.60;;;;;;;3.94;100.00;97139.88;10369640;28;20077;-58
2022/04/04 19:46:28;;;;;;;2.35;1.67;;;;;;;4.01;100.00;97146.31;10387328;28;20063;-57
2022/04/04 19:51:32;;;;;;;2.03;1.70;;;;;;;4.04;100.00;97176.31;10385836;28;20038;-61
2022/04/04 19:56:35;;;;;;;1.65;1.55;;;;;;;4.04;100.00;97150.50;10384499;28;20045;-62
2022/04/04 20:01:40;;;;;;;1.70;1.60;;;;;;;4.04;100.00;97147.00;10386750;28;20044;-62
2022/04/04 20:06:43;;;;;;;1.52;1.42;;;;;;;4.01;100.00;97140.97;10386470;28;20382;-61
2022/04/04 20:11:46;;;;;;;1.52;1.42;;;;;;;4.03;100.00;97150.66;10386275;28;20037;-61
2022/04/04 20:16:51;;;;;;;1.60;1.50;;;;;;;4.02;100.00;97160.47;10384698;28;20144;-58
2022/04/04 20:21:54;;;;;;;1.60;1.50;;;;;;;4.03;100.00;97155.97;10385520;28;20054;-58
2022/04/04 20:26:57;;;;;;;1.50;1.40;;;;;;;3.96;100.00;97153.91;10383360;28;20069;-56
2022/04/04 20:32:02;;;;;;;1.60;1.50;;;;;;;3.93;100.00;97158.69;10381833;28;20056;-58
2022/04/04 20:37:05;;;;;;;1.60;1.50;;;;;;;3.83;100.00;97158.75;10386271;28;20096;-56
2022/04/04 20:42:08;;;;;;;2.45;1.50;;;;;;;3.72;100.00;97157.16;10386012;28;20124;-60
2022/04/04 20:47:13;;;;;;;1.80;1.70;;;;;;;3.66;100.00;97147.94;10384080;28;21323;-58
2022/04/04 20:52:16;;;;;;;1.50;1.40;;;;;;;3.67;100.00;97154.09;10385988;28;20041;-56
2022/04/04 20:57:20;;;;;;;1.58;1.48;;;;;;;3.69;100.00;97139.66;10372458;28;20052;-56
2022/04/04 21:02:25;;;;;;;1.50;1.40;;;;;;;3.74;100.00;97151.66;10384906;28;20501;-57
2022/04/04 21:07:28;;;;;;;1.60;1.50;;;;;;;3.78;100.00;97139.75;10384534;28;20045;-61
2022/04/04 21:12:31;;;;;;;1.40;1.38;;;;;;;3.78;100.00;97137.91;10384459;28;20061;-58
2022/04/04 21:17:36;;;;;;;1.33;1.30;;;;;;;3.84;100.00;97134.66;10387362;28;20065;-58
2022/04/04 21:22:39;;;;;;;1.40;1.30;;;;;;;3.80;100.00;97137.78;10382473;28;20144;-57
2022/04/04 21:27:42;;;;;;;1.30;1.30;;;;;;;3.74;100.00;97133.03;10385557;28;20052;-56
2022/04/04 21:32:47;;;;;;;1.42;1.33;;;;;;;3.69;100.00;97126.34;10382964;28;20046;-61
2022/04/04 21:37:50;;;;;;;1.50;1.40;;;;;;;3.70;100.00;97127.16;10389011;28;20081;-61
2022/04/04 21:42:53;;;;;;;1.42;1.33;;;;;;;3.67;100.00;97101.69;10382949;28;20162;-63
2022/04/04 21:47:58;;;;;;;1.60;1.50;;;;;;;3.69;100.00;97122.81;10384627;28;21413;-62
2022/04/04 21:53:01;;;;;;;1.52;1.42;;;;;;;3.70;100.00;97114.66;10367913;28;20050;-62
2022/04/04 21:58:04;;;;;;;1.45;1.40;;;;;;;3.70;100.00;97138.63;10389701;28;20120;-61
2022/04/04 22:03:09;;;;;;;1.33;1.30;;;;;;;3.74;100.00;97139.22;10392218;28;20050;-62
2022/04/04 22:08:12;;;;;;;1.60;1.50;;;;;;;3.74;100.00;97119.69;10390061;28;20485;-61
2022/04/04 22:13:15;;;;;;;1.25;1.25;;;;;;;3.72;100.00;97130.53;10392695;28;20045;-62
2022/04/04 22:18:20;;;;;;;1.38;1.27;;;;;;;3.68;100.00;97137.13;10388958;28;20549;-63
2022/04/04 22:24:14;;;;;;;1.50;1.40;;;;;;;3.65;100.00;97127.63;10392926;28;20041;-61
2022/04/04 22:29:18;;;;;;;1.42;1.40;;;;;;;3.60;100.00;97137.88;10384619;28;20081;-62
2022/04/04 22:34:22;;;;;;;1.70;1.60;;;;;;;3.62;100.00;97133.22;10391265;28;20049;-62
2022/04/04 22:39:25;;;;;;;1.60;1.50;;;;;;;3.62;100.00;97119.91;10388962;28;20761;-62
2022/04/04 22:44:29;;;;;;;1.70;1.60;;;;;;;3.66;100.00;97126.63;10389074;28;20061;-63
2022/04/04 22:49:34;;;;;;;1.75;1.65;;;;;;;3.70;100.00;97106.69;10391317;28;20051;-62
2022/04/04 22:54:37;;;;;;;1.60;1.50;;;;;;;3.73;100.00;97110.03;10391659;28;20041;-60
2022/04/04 22:59:40;;;;;;;1.70;1.60;;;;;;;3.80;100.00;97100.47;10390653;28;20048;-62
2022/04/04 23:04:44;;;;;;;1.75;1.65;;;;;;;3.81;100.00;97102.16;10372499;28;20056;-60
2022/04/04 23:09:47;;;;;;;1.40;1.30;;;;;;;3.88;100.00;97108.53;10369241;28;20053;-62
2022/04/04 23:14:50;;;;;;;1.50;1.40;;;;;;;3.90;100.00;97101.22;10390862;28;20939;-61
2022/04/04 23:19:55;;;;;;;1.58;1.48;;;;;;;3.95;100.00;97104.25;10389925;28;20180;-61
2022/04/04 23:24:58;;;;;;;1.48;1.38;;;;;;;3.97;100.00;97101.47;10392980;28;20465;-62
2022/04/04 23:30:01;;;;;;;1.30;1.30;;;;;;;3.96;100.00;97097.94;10372375;28;20053;-62
2022/04/04 23:35:07;;;;;;;1.55;1.45;;;;;;;3.97;100.00;97086.31;10389501;28;20042;-63
2022/04/04 23:40:28;;;;;;;1.50;1.40;;;;;;;3.95;100.00;97101.59;10389654;28;20486;-63
2022/04/04 23:45:32;;;;;;;1.60;1.50;;;;;;;3.94;100.00;97091.94;10394764;28;20063;-62